sensor_id;sensor_type;location;lat;lon;timestamp;pressure;altitude;pressure_sealevel;temperature;humidity
44675;BME280;30388;52.038;-1.478;2023-05-01T00:00:47;65991.37;;;12.22;100.00
44675;BME280;30388;52.038;-1.478;2023-05-01T00:03:15;66068.94;;;12.50;100.00
44675;BME280;30388;52.038;-1.478;2023-05-01T00:05:42;65982.82;;;11.90;100.00
44675;BME280;30388;52.038;-1.478;2023-05-01T00:08:09;66034.23;;;12.55;100.00
44675;BME280;30388;52.038;-1.478;2023-05-01T00:10:36;65974.97;;;12.02;100.00
44675;BME280;30388;52.038;-1.478;2023-05-01T00:13:03;66010.67;;;11.98;100.00
44675;BME280;30388;52.038;-1.478;2023-05-01T00:15:31;65965.48;;;11.89;100.00
44675;BME280;30388;52.038;-1.478;2023-05-01T00:17:58;66012.18;;;12.00;100.00
44675;BME280;30388;52.038;-1.478;2023-05-01T00:20:26;66023.90;;;12.15;100.00
44675;BME280;30388;52.038;-1.478;2023-05-01T00:22:53;66064.48;;;12.66;100.00
44675;BME280;30388;52.038;-1.478;2023-05-01T00:25:20;66106.19;;;13.18;100.00
44675;BME280;30388;52.038;-1.478;2023-05-01T00:27:47;66033.08;;;12.26;100.00
44675;BME280;30388;52.038;-1.478;2023-05-01T00:30:14;66075.46;;;12.35;100.00
44675;BME280;30388;52.038;-1.478;2023-05-01T00:32:41;66095.01;;;13.05;100.00
44675;BME280;30388;52.038;-1.478;2023-05-01T00:35:08;66009.40;;;11.96;100.00
44675;BME280;30388;52.038;-1.478;2023-05-01T00:37:35;66029.74;;;12.22;100.00
44675;BME280;30388;52.038;-1.478;2023-05-01T00:40:03;66094.27;;;13.04;100.00
44675;BME280;30388;52.038;-1.478;2023-05-01T00:42:33;66035.34;;;12.29;100.00
44675;BME280;30388;52.038;-1.478;2023-05-01T00:45:01;66002.61;;;12.37;100.00
44675;BME280;30388;52.038;-1.478;2023-05-01T00:47:28;66002.31;;;11.87;100.00
44675;BME280;30388;52.038;-1.478;2023-05-01T00:49:55;65982.14;;;12.11;100.00
44675;BME280;30388;52.038;-1.478;2023-05-01T00:52:23;65886.34;;;11.12;100.00
44675;BME280;30388;52.038;-1.478;2023-05-01T00:54:50;65811.23;;;10.43;100.00
44675;BME280;30388;52.038;-1.478;2023-05-01T00:57:18;65839.74;;;10.53;100.00
44675;BME280;30388;52.038;-1.478;2023-05-01T00:59:45;65881.42;;;11.06;100.00
44675;BME280;30388;52.038;-1.478;2023-05-01T01:02:13;65890.15;;;11.17;100.00
44675;BME280;30388;52.038;-1.478;2023-05-01T01:04:41;65878.39;;;11.02;100.00
44675;BME280;30388;52.038;-1.478;2023-05-01T01:07:14;65848.63;;;10.65;100.00
44675;BME280;30388;52.038;-1.478;2023-05-01T01:09:54;65964.59;;;12.11;100.00
44675;BME280;30388;52.038;-1.478;2023-05-01T01:12:29;65905.27;;;11.36;100.00
44675;BME280;30388;52.038;-1.478;2023-05-01T01:15:07;65941.05;;;11.60;100.00
44675;BME280;30388;52.038;-1.478;2023-05-01T01:17:43;65844.30;;;10.59;100.00
44675;BME280;30388;52.038;-1.478;2023-05-01T01:20:22;65899.01;;;11.28;100.00
44675;BME280;30388;52.038;-1.478;2023-05-01T01:22:56;65842.44;;;10.83;100.00
44675;BME280;30388;52.038;-1.478;2023-05-01T01:25:38;65861.45;;;10.80;100.00
44675;BME280;30388;52.038;-1.478;2023-05-01T01:28:23;65899.82;;;11.30;100.00
44675;BME280;30388;52.038;-1.478;2023-05-01T01:31:09;65881.36;;;10.84;100.00
44675;BME280;30388;52.038;-1.478;2023-05-01T01:33:49;65947.20;;;11.67;100.00
44675;BME280;30388;52.038;-1.478;2023-05-01T01:36:24;65911.11;;;11.44;100.00
44675;BME280;30388;52.038;-1.478;2023-05-01T01:39:05;65859.10;;;11.04;100.00
44675;BME280;30388;52.038;-1.478;2023-05-01T01:41:36;65751.95;;;9.42;100.00
44675;BME280;30388;52.038;-1.478;2023-05-01T01:44:09;65915.96;;;11.28;100.00
44675;BME280;30388;52.038;-1.478;2023-05-01T01:46:40;65859.10;;;10.56;100.00
44675;BME280;30388;52.038;-1.478;2023-05-01T01:49:14;65915.14;;;11.26;100.00
44675;BME280;30388;52.038;-1.478;2023-05-01T01:51:44;65905.65;;;11.14;100.00
44675;BME280;30388;52.038;-1.478;2023-05-01T01:54:12;65850.61;;;10.67;100.00
44675;BME280;30388;52.038;-1.478;2023-05-01T01:56:41;65856.07;;;10.74;100.00
44675;BME280;30388;52.038;-1.478;2023-05-01T01:59:10;65772.82;;;9.95;100.00
44675;BME280;30388;52.038;-1.478;2023-05-01T02:01:39;65723.32;;;9.07;100.00
44675;BME280;30388;52.038;-1.478;2023-05-01T02:04:08;65777.60;;;10.50;100.00
44675;BME280;30388;52.038;-1.478;2023-05-01T02:06:37;65730.80;;;9.65;100.00
44675;BME280;30388;52.038;-1.478;2023-05-01T02:09:05;65629.89;;;8.64;100.00
44675;BME280;30388;52.038;-1.478;2023-05-01T02:11:35;65780.04;;;10.05;100.00
44675;BME280;30388;52.038;-1.478;2023-05-01T02:14:03;65800.63;;;10.05;100.00
44675;BME280;30388;52.038;-1.478;2023-05-01T02:16:32;65816.19;;;10.24;100.00
44675;BME280;30388;52.038;-1.478;2023-05-01T02:19:01;65869.10;;;10.68;100.00
44675;BME280;30388;52.038;-1.478;2023-05-01T02:21:29;65936.30;;;11.32;100.00
44675;BME280;30388;52.038;-1.478;2023-05-01T02:23:59;65961.88;;;11.64;100.00
44675;BME280;30388;52.038;-1.478;2023-05-01T02:26:28;65831.64;;;10.21;100.00
44675;BME280;30388;52.038;-1.478;2023-05-01T02:28:56;65776.73;;;10.01;100.00
44675;BME280;30388;52.038;-1.478;2023-05-01T02:31:23;65838.73;;;10.79;100.00
44675;BME280;30388;52.038;-1.478;2023-05-01T02:33:50;65694.74;;;8.97;100.00
44675;BME280;30388;52.038;-1.478;2023-05-01T02:36:17;65734.15;;;9.47;100.00
44675;BME280;30388;52.038;-1.478;2023-05-01T02:38:44;65772.94;;;9.96;100.00
44675;BME280;30388;52.038;-1.478;2023-05-01T02:41:14;65791.96;;;10.69;100.00
44675;BME280;30388;52.038;-1.478;2023-05-01T02:43:42;65854.56;;;10.99;100.00
44675;BME280;30388;52.038;-1.478;2023-05-01T02:46:12;65797.40;;;10.27;100.00
44675;BME280;30388;52.038;-1.478;2023-05-01T02:48:42;65829.98;;;10.42;100.00
44675;BME280;30388;52.038;-1.478;2023-05-01T02:51:10;65764.43;;;10.08;100.00
44675;BME280;30388;52.038;-1.478;2023-05-01T02:53:38;65823.03;;;10.60;100.00
44675;BME280;30388;52.038;-1.478;2023-05-01T02:56:06;65801.55;;;10.31;100.00
44675;BME280;30388;52.038;-1.478;2023-05-01T02:58:34;65802.72;;;10.08;100.00
44675;BME280;30388;52.038;-1.478;2023-05-01T03:01:01;65852.23;;;10.97;100.00
44675;BME280;30388;52.038;-1.478;2023-05-01T03:03:28;65908.67;;;11.19;100.00
44675;BME280;30388;52.038;-1.478;2023-05-01T03:05:58;65792.55;;;9.72;100.00
44675;BME280;30388;52.038;-1.478;2023-05-01T03:08:26;65864.09;;;10.85;100.00
44675;BME280;30388;52.038;-1.478;2023-05-01T03:10:53;65948.52;;;11.70;100.00
44675;BME280;30388;52.038;-1.478;2023-05-01T03:13:20;65967.57;;;11.93;100.00
44675;BME280;30388;52.038;-1.478;2023-05-01T03:15:47;65976.14;;;12.26;100.00
44675;BME280;30388;52.038;-1.478;2023-05-01T03:18:14;65924.06;;;11.38;100.00
44675;BME280;30388;52.038;-1.478;2023-05-01T03:20:50;65968.16;;;11.45;100.00
44675;BME280;30388;52.038;-1.478;2023-05-01T03:23:17;65997.73;;;11.83;100.00
44675;BME280;30388;52.038;-1.478;2023-05-01T03:25:44;65986.30;;;11.69;100.00
44675;BME280;30388;52.038;-1.478;2023-05-01T03:28:11;65930.00;;;11.46;100.00
44675;BME280;30388;52.038;-1.478;2023-05-01T03:30:38;65948.71;;;11.70;100.00
44675;BME280;30388;52.038;-1.478;2023-05-01T03:33:05;65996.07;;;12.29;100.00
44675;BME280;30388;52.038;-1.478;2023-05-01T03:35:32;65940.60;;;11.59;100.00
44675;BME280;30388;52.038;-1.478;2023-05-01T03:37:59;65979.37;;;11.59;100.00
44675;BME280;30388;52.038;-1.478;2023-05-01T03:40:26;65947.71;;;11.46;100.00
44675;BME280;30388;52.038;-1.478;2023-05-01T03:42:54;65962.94;;;11.88;100.00
44675;BME280;30388;52.038;-1.478;2023-05-01T03:45:21;66005.84;;;12.20;100.00
44675;BME280;30388;52.038;-1.478;2023-05-01T03:47:48;66010.10;;;11.98;100.00
44675;BME280;30388;52.038;-1.478;2023-05-01T03:50:16;65991.54;;;12.02;100.00
44675;BME280;30388;52.038;-1.478;2023-05-01T03:52:43;65979.69;;;12.09;100.00
44675;BME280;30388;52.038;-1.478;2023-05-01T03:55:10;65988.45;;;11.70;100.00
44675;BME280;30388;52.038;-1.478;2023-05-01T03:57:37;65976.93;;;11.83;100.00
44675;BME280;30388;52.038;-1.478;2023-05-01T04:00:05;65975.31;;;12.03;100.00
44675;BME280;30388;52.038;-1.478;2023-05-01T04:02:32;65893.01;;;10.99;100.00
44675;BME280;30388;52.038;-1.478;2023-05-01T04:04:59;65895.27;;;11.02;100.00
44675;BME280;30388;52.038;-1.478;2023-05-01T04:07:26;65907.43;;;11.17;100.00
44675;BME280;30388;52.038;-1.478;2023-05-01T04:09:53;65914.34;;;11.26;100.00
44675;BME280;30388;52.038;-1.478;2023-05-01T04:12:20;65842.64;;;10.58;100.00
44675;BME280;30388;52.038;-1.478;2023-05-01T04:14:47;65661.48;;;9.04;100.00
44675;BME280;30388;52.038;-1.478;2023-05-01T04:17:17;65833.80;;;10.73;100.00
44675;BME280;30388;52.038;-1.478;2023-05-01T04:19:44;65820.96;;;10.58;100.00
44675;BME280;30388;52.038;-1.478;2023-05-01T04:22:11;65612.10;;;8.42;100.00
44675;BME280;30388;52.038;-1.478;2023-05-01T04:24:38;65652.92;;;8.93;100.00
44675;BME280;30388;52.038;-1.478;2023-05-01T04:27:06;65571.11;;;8.34;100.00
44675;BME280;30388;52.038;-1.478;2023-05-01T04:29:33;65617.30;;;8.93;100.00
44675;BME280;30388;52.038;-1.478;2023-05-01T04:32:00;65610.36;;;8.84;100.00
44675;BME280;30388;52.038;-1.478;2023-05-01T04:34:28;65587.43;;;8.33;100.00
44675;BME280;30388;52.038;-1.478;2023-05-01T04:36:55;65708.82;;;9.64;100.00
44675;BME280;30388;52.038;-1.478;2023-05-01T04:39:22;65755.55;;;9.74;100.00
44675;BME280;30388;52.038;-1.478;2023-05-01T04:41:49;65754.49;;;9.73;100.00
44675;BME280;30388;52.038;-1.478;2023-05-01T04:44:16;65730.16;;;9.91;100.00
44675;BME280;30388;52.038;-1.478;2023-05-01T04:46:43;65661.13;;;9.04;100.00
44675;BME280;30388;52.038;-1.478;2023-05-01T04:49:11;65764.80;;;10.35;100.00
44675;BME280;30388;52.038;-1.478;2023-05-01T04:51:38;65794.12;;;10.72;100.00
44675;BME280;30388;52.038;-1.478;2023-05-01T04:54:05;65832.86;;;10.72;100.00
44675;BME280;30388;52.038;-1.478;2023-05-01T04:56:32;65872.72;;;10.73;100.00
44675;BME280;30388;52.038;-1.478;2023-05-01T04:58:59;65816.24;;;10.51;100.00
44675;BME280;30388;52.038;-1.478;2023-05-01T05:01:26;65834.13;;;10.73;100.00
44675;BME280;30388;52.038;-1.478;2023-05-01T05:03:54;65876.51;;;11.27;100.00
44675;BME280;30388;52.038;-1.478;2023-05-01T05:06:21;65809.86;;;10.43;100.00
44675;BME280;30388;52.038;-1.478;2023-05-01T05:08:48;65920.33;;;11.56;100.00
44675;BME280;30388;52.038;-1.478;2023-05-01T05:11:15;65863.59;;;10.62;100.00
44675;BME280;30388;52.038;-1.478;2023-05-01T05:13:42;65923.98;;;11.38;100.00
44675;BME280;30388;52.038;-1.478;2023-05-01T05:16:09;65983.69;;;12.14;100.00
44675;BME280;30388;52.038;-1.478;2023-05-01T05:18:36;66010.25;;;12.25;100.00
44675;BME280;30388;52.038;-1.478;2023-05-01T05:21:04;66035.41;;;12.79;100.00
44675;BME280;30388;52.038;-1.478;2023-05-01T05:23:33;66049.44;;;12.48;100.00
44675;BME280;30388;52.038;-1.478;2023-05-01T05:26:00;66071.32;;;12.75;100.00
44675;BME280;30388;52.038;-1.478;2023-05-01T05:28:27;66043.30;;;12.40;100.00
44675;BME280;30388;52.038;-1.478;2023-05-01T05:30:55;66064.46;;;12.66;100.00
44675;BME280;30388;52.038;-1.478;2023-05-01T05:33:22;66040.29;;;12.14;100.00
44675;BME280;30388;52.038;-1.478;2023-05-01T05:35:50;66091.11;;;13.00;100.00
44675;BME280;30388;52.038;-1.478;2023-05-01T05:38:18;66163.42;;;13.47;100.00
44675;BME280;30388;52.038;-1.478;2023-05-01T05:40:45;66160.22;;;13.43;100.00
44675;BME280;30388;52.038;-1.478;2023-05-01T05:43:12;66164.81;;;13.49;100.00
44675;BME280;30388;52.038;-1.478;2023-05-01T05:45:39;66100.88;;;12.68;100.00
44675;BME280;30388;52.038;-1.478;2023-05-01T05:48:06;65950.24;;;11.49;100.00
44675;BME280;30388;52.038;-1.478;2023-05-01T05:50:33;65965.29;;;11.90;100.00
44675;BME280;30388;52.038;-1.478;2023-05-01T05:53:00;66024.10;;;12.64;100.00
44675;BME280;30388;52.038;-1.478;2023-05-01T05:55:28;65954.12;;;11.27;100.00
44675;BME280;30388;52.038;-1.478;2023-05-01T05:57:55;66010.55;;;12.47;100.00
44675;BME280;30388;52.038;-1.478;2023-05-01T06:00:22;66117.23;;;13.33;100.00
44675;BME280;30388;52.038;-1.478;2023-05-01T06:02:55;66009.71;;;11.96;100.00
44675;BME280;30388;52.038;-1.478;2023-05-01T06:05:22;65892.93;;;10.98;100.00
44675;BME280;30388;52.038;-1.478;2023-05-01T06:07:49;65864.78;;;10.85;100.00
44675;BME280;30388;52.038;-1.478;2023-05-01T06:10:16;65870.02;;;10.70;100.00
44675;BME280;30388;52.038;-1.478;2023-05-01T06:12:43;65929.30;;;11.45;100.00
44675;BME280;30388;52.038;-1.478;2023-05-01T06:15:11;65836.81;;;10.27;100.00
44675;BME280;30388;52.038;-1.478;2023-05-01T06:17:38;65899.19;;;11.29;100.00
44675;BME280;30388;52.038;-1.478;2023-05-01T06:20:06;65869.87;;;11.18;100.00
44675;BME280;30388;52.038;-1.478;2023-05-01T06:22:34;65971.68;;;11.98;100.00
44675;BME280;30388;52.038;-1.478;2023-05-01T06:25:01;65959.05;;;11.82;100.00
44675;BME280;30388;52.038;-1.478;2023-05-01T06:27:28;65771.59;;;9.67;100.00
44675;BME280;30388;52.038;-1.478;2023-05-01T06:29:55;65982.06;;;11.63;100.00
44675;BME280;30388;52.038;-1.478;2023-05-01T06:32:22;65911.17;;;11.21;100.00
44675;BME280;30388;52.038;-1.478;2023-05-01T06:34:49;65784.73;;;10.11;100.00
44675;BME280;30388;52.038;-1.478;2023-05-01T06:37:16;65780.53;;;10.05;100.00
44675;BME280;30388;52.038;-1.478;2023-05-01T06:39:43;65926.81;;;11.41;100.00
44675;BME280;30388;52.038;-1.478;2023-05-01T06:42:10;65938.40;;;11.56;100.00
44675;BME280;30388;52.038;-1.478;2023-05-01T06:44:37;65856.58;;;10.74;100.00
44675;BME280;30388;52.038;-1.478;2023-05-01T06:47:04;65825.38;;;10.62;100.00
44675;BME280;30388;52.038;-1.478;2023-05-01T06:49:31;65771.05;;;10.46;100.00
44675;BME280;30388;52.038;-1.478;2023-05-01T06:51:58;65771.66;;;9.95;100.00
44675;BME280;30388;52.038;-1.478;2023-05-01T06:54:27;65799.65;;;10.04;100.00
44675;BME280;30388;52.038;-1.478;2023-05-01T06:56:54;65870.95;;;10.93;100.00
44675;BME280;30388;52.038;-1.478;2023-05-01T06:59:21;65772.06;;;9.95;100.00
44675;BME280;30388;52.038;-1.478;2023-05-01T07:01:48;65795.42;;;10.24;100.00
44675;BME280;30388;52.038;-1.478;2023-05-01T07:04:15;65805.15;;;10.60;100.00
44675;BME280;30388;52.038;-1.478;2023-05-01T07:06:42;65780.80;;;10.27;100.00
44675;BME280;30388;52.038;-1.478;2023-05-01T07:09:09;65852.27;;;10.96;100.00
44675;BME280;30388;52.038;-1.478;2023-05-01T07:11:36;65811.49;;;9.97;100.00
44675;BME280;30388;52.038;-1.478;2023-05-01T07:14:03;65884.29;;;10.87;100.00
44675;BME280;30388;52.038;-1.478;2023-05-01T07:16:31;65764.80;;;10.34;100.00
44675;BME280;30388;52.038;-1.478;2023-05-01T07:18:57;65923.90;;;11.61;100.00
44675;BME280;30388;52.038;-1.478;2023-05-01T07:21:25;65882.82;;;11.09;100.00
44675;BME280;30388;52.038;-1.478;2023-05-01T07:23:52;65895.23;;;11.24;100.00
44675;BME280;30388;52.038;-1.478;2023-05-01T07:26:19;65737.32;;;10.00;100.00
44675;BME280;30388;52.038;-1.478;2023-05-01T07:28:46;65727.35;;;9.88;100.00
44675;BME280;30388;52.038;-1.478;2023-05-01T07:31:14;65754.65;;;9.95;100.00
44675;BME280;30388;52.038;-1.478;2023-05-01T07:33:41;65702.87;;;9.57;100.00
44675;BME280;30388;52.038;-1.478;2023-05-01T07:36:08;65643.48;;;9.25;100.00
44675;BME280;30388;52.038;-1.478;2023-05-01T07:38:35;65791.79;;;10.69;100.00
44675;BME280;30388;52.038;-1.478;2023-05-01T07:41:02;65709.47;;;9.65;100.00
44675;BME280;30388;52.038;-1.478;2023-05-01T07:43:29;65683.28;;;9.54;100.00
44675;BME280;30388;52.038;-1.478;2023-05-01T07:45:57;65724.80;;;9.84;100.00
44675;BME280;30388;52.038;-1.478;2023-05-01T07:48:27;65755.14;;;10.22;100.00
44675;BME280;30388;52.038;-1.478;2023-05-01T07:50:54;65847.27;;;11.39;100.00
44675;BME280;30388;52.038;-1.478;2023-05-01T07:53:21;65833.09;;;10.95;100.00
44675;BME280;30388;52.038;-1.478;2023-05-01T07:55:48;65765.25;;;10.35;100.00
44675;BME280;30388;52.038;-1.478;2023-05-01T07:58:15;65710.82;;;9.66;100.00
44675;BME280;30388;52.038;-1.478;2023-05-01T08:00:42;65683.69;;;9.77;100.00
44675;BME280;30388;52.038;-1.478;2023-05-01T08:03:10;65615.79;;;8.91;100.00
44675;BME280;30388;52.038;-1.478;2023-05-01T08:05:39;65742.23;;;10.29;100.00
44675;BME280;30388;52.038;-1.478;2023-05-01T08:08:07;65652.81;;;9.38;100.00
44675;BME280;30388;52.038;-1.478;2023-05-01T08:10:34;65643.81;;;9.27;100.00
44675;BME280;30388;52.038;-1.478;2023-05-01T08:13:02;65774.83;;;10.48;100.00
44675;BME280;30388;52.038;-1.478;2023-05-01T08:15:29;65789.65;;;10.67;100.00
44675;BME280;30388;52.038;-1.478;2023-05-01T08:17:57;65805.92;;;10.61;100.00
44675;BME280;30388;52.038;-1.478;2023-05-01T08:20:24;65738.38;;;10.46;100.00
44675;BME280;30388;52.038;-1.478;2023-05-01T08:22:52;65695.24;;;9.91;100.00
44675;BME280;30388;52.038;-1.478;2023-05-01T08:25:19;65821.43;;;11.07;100.00
44675;BME280;30388;52.038;-1.478;2023-05-01T08:27:46;65847.28;;;10.91;100.00
44675;BME280;30388;52.038;-1.478;2023-05-01T08:30:14;65903.36;;;11.35;100.00
44675;BME280;30388;52.038;-1.478;2023-05-01T08:32:41;65978.07;;;12.55;100.00
44675;BME280;30388;52.038;-1.478;2023-05-01T08:35:08;66085.07;;;13.42;100.00
44675;BME280;30388;52.038;-1.478;2023-05-01T08:37:35;66047.26;;;12.94;100.00
44675;BME280;30388;52.038;-1.478;2023-05-01T08:40:02;65948.68;;;11.70;100.00
44675;BME280;30388;52.038;-1.478;2023-05-01T08:42:29;65937.92;;;11.78;100.00
44675;BME280;30388;52.038;-1.478;2023-05-01T08:44:58;65848.42;;;11.41;100.00
44675;BME280;30388;52.038;-1.478;2023-05-01T08:47:26;65994.36;;;12.27;100.00
44675;BME280;30388;52.038;-1.478;2023-05-01T08:49:53;65967.00;;;11.92;100.00
44675;BME280;30388;52.038;-1.478;2023-05-01T08:52:21;65813.73;;;10.97;100.00
44675;BME280;30388;52.038;-1.478;2023-05-01T08:54:50;65963.93;;;12.12;100.00
44675;BME280;30388;52.038;-1.478;2023-05-01T08:57:18;65916.85;;;11.29;100.00
44675;BME280;30388;52.038;-1.478;2023-05-01T08:59:47;65907.47;;;11.66;100.00
44675;BME280;30388;52.038;-1.478;2023-05-01T09:02:16;65912.88;;;11.73;100.00
44675;BME280;30388;52.038;-1.478;2023-05-01T09:04:44;65958.08;;;11.59;100.00
44675;BME280;30388;52.038;-1.478;2023-05-01T09:07:12;65983.59;;;11.65;100.00
44675;BME280;30388;52.038;-1.478;2023-05-01T09:09:40;66000.85;;;12.36;100.00
44675;BME280;30388;52.038;-1.478;2023-05-01T09:12:14;66133.64;;;13.54;100.00
44675;BME280;30388;52.038;-1.478;2023-05-01T09:14:43;66276.96;;;14.63;100.00
44675;BME280;30388;52.038;-1.478;2023-05-01T09:17:11;66310.68;;;14.84;100.00
44675;BME280;30388;52.038;-1.478;2023-05-01T09:19:38;66187.69;;;14.00;100.00
44675;BME280;30388;52.038;-1.478;2023-05-01T09:22:05;66102.91;;;13.15;100.00
44675;BME280;30388;52.038;-1.478;2023-05-01T09:24:33;66085.65;;;12.94;100.00
44675;BME280;30388;52.038;-1.478;2023-05-01T09:27:01;66062.83;;;13.13;100.00
44675;BME280;30388;52.038;-1.478;2023-05-01T09:29:37;66157.07;;;13.83;100.00
44675;BME280;30388;52.038;-1.478;2023-05-01T09:32:21;66139.49;;;13.61;100.00
44675;BME280;30388;52.038;-1.478;2023-05-01T09:34:49;66019.86;;;12.81;100.00
44675;BME280;30388;52.038;-1.478;2023-05-01T09:37:26;66043.84;;;12.90;100.00
44675;BME280;30388;52.038;-1.478;2023-05-01T09:40:10;66058.65;;;12.87;100.00
44675;BME280;30388;52.038;-1.478;2023-05-01T09:42:39;65963.90;;;12.38;100.00
44675;BME280;30388;52.038;-1.478;2023-05-01T09:45:13;65971.03;;;11.97;100.00
44675;BME280;30388;52.038;-1.478;2023-05-01T09:47:40;66175.71;;;14.07;100.00
44675;BME280;30388;52.038;-1.478;2023-05-01T09:50:10;66159.57;;;13.86;100.00
44675;BME280;30388;52.038;-1.478;2023-05-01T09:52:37;66084.07;;;13.19;100.00
44675;BME280;30388;52.038;-1.478;2023-05-01T09:55:12;66144.14;;;13.45;100.00
44675;BME280;30388;52.038;-1.478;2023-05-01T09:57:40;66193.31;;;14.30;100.00
44675;BME280;30388;52.038;-1.478;2023-05-01T10:00:08;66239.60;;;14.43;100.00
44675;BME280;30388;52.038;-1.478;2023-05-01T10:02:35;66218.96;;;14.39;100.00
44675;BME280;30388;52.038;-1.478;2023-05-01T10:05:03;66151.99;;;13.55;100.00
44675;BME280;30388;52.038;-1.478;2023-05-01T10:07:30;65972.87;;;12.49;100.00
44675;BME280;30388;52.038;-1.478;2023-05-01T10:09:58;66030.37;;;12.73;100.00
44675;BME280;30388;52.038;-1.478;2023-05-01T10:12:26;66118.82;;;13.84;100.00
44675;BME280;30388;52.038;-1.478;2023-05-01T10:14:55;66105.96;;;13.19;100.00
44675;BME280;30388;52.038;-1.478;2023-05-01T10:17:23;66070.91;;;13.23;100.00
44675;BME280;30388;52.038;-1.478;2023-05-01T10:19:50;66167.38;;;13.96;100.00
44675;BME280;30388;52.038;-1.478;2023-05-01T10:22:17;66194.71;;;14.08;100.00
44675;BME280;30388;52.038;-1.478;2023-05-01T10:24:44;66114.89;;;13.31;100.00
44675;BME280;30388;52.038;-1.478;2023-05-01T10:27:12;66181.21;;;14.13;100.00
44675;BME280;30388;52.038;-1.478;2023-05-01T10:29:40;66130.88;;;13.50;100.00
44675;BME280;30388;52.038;-1.478;2023-05-01T10:32:07;66008.77;;;12.45;100.00
44675;BME280;30388;52.038;-1.478;2023-05-01T10:34:38;66152.08;;;13.32;100.00
44675;BME280;30388;52.038;-1.478;2023-05-01T10:37:10;66132.48;;;13.52;100.00
44675;BME280;30388;52.038;-1.478;2023-05-01T10:39:38;66004.60;;;12.40;100.00
44675;BME280;30388;52.038;-1.478;2023-05-01T10:42:06;66104.61;;;13.66;100.00
44675;BME280;30388;52.038;-1.478;2023-05-01T10:44:34;66215.25;;;14.34;100.00
44675;BME280;30388;52.038;-1.478;2023-05-01T10:47:43;66184.32;;;13.95;100.00
44675;BME280;30388;52.038;-1.478;2023-05-01T10:50:11;66338.06;;;15.67;100.00
44675;BME280;30388;52.038;-1.478;2023-05-01T10:53:45;66167.93;;;13.75;100.00
44675;BME280;30388;52.038;-1.478;2023-05-01T10:56:50;66106.22;;;13.46;100.00
44675;BME280;30388;52.038;-1.478;2023-05-01T10:59:17;66047.57;;;12.94;100.00
44675;BME280;30388;52.038;-1.478;2023-05-01T11:01:46;66100.85;;;13.61;100.00
44675;BME280;30388;52.038;-1.478;2023-05-01T11:04:47;66064.15;;;12.66;100.00
44675;BME280;30388;52.038;-1.478;2023-05-01T11:07:15;66174.34;;;13.61;100.00
44675;BME280;30388;52.038;-1.478;2023-05-01T11:09:44;66191.99;;;14.28;100.00
44675;BME280;30388;52.038;-1.478;2023-05-01T11:12:12;66135.99;;;13.12;100.00
44675;BME280;30388;52.038;-1.478;2023-05-01T11:15:25;66082.49;;;12.89;100.00
44675;BME280;30388;52.038;-1.478;2023-05-01T11:17:53;66126.39;;;13.45;100.00
44675;BME280;30388;52.038;-1.478;2023-05-01T11:20:53;66080.54;;;12.87;100.00
44675;BME280;30388;52.038;-1.478;2023-05-01T11:23:21;66157.03;;;13.83;100.00
44675;BME280;30388;52.038;-1.478;2023-05-01T11:25:49;66128.25;;;13.47;100.00
44675;BME280;30388;52.038;-1.478;2023-05-01T11:28:20;66122.92;;;13.40;100.00
44675;BME280;30388;52.038;-1.478;2023-05-01T11:30:47;66020.85;;;12.38;100.00
44675;BME280;30388;52.038;-1.478;2023-05-01T11:33:21;66015.54;;;12.54;100.00
44675;BME280;30388;52.038;-1.478;2023-05-01T11:35:56;66130.73;;;13.50;100.00
44675;BME280;30388;52.038;-1.478;2023-05-01T11:38:24;66220.21;;;14.40;100.00
44675;BME280;30388;52.038;-1.478;2023-05-01T11:40:54;66268.93;;;14.79;100.00
44675;BME280;30388;52.038;-1.478;2023-05-01T11:43:22;66063.36;;;13.14;100.00
44675;BME280;30388;52.038;-1.478;2023-05-01T11:45:51;66077.27;;;13.32;100.00
44675;BME280;30388;52.038;-1.478;2023-05-01T11:48:20;66215.52;;;14.57;100.00
44675;BME280;30388;52.038;-1.478;2023-05-01T11:50:47;66346.40;;;15.51;100.00
44675;BME280;30388;52.038;-1.478;2023-05-01T11:53:14;66354.18;;;15.86;100.00
44675;BME280;30388;52.038;-1.478;2023-05-01T11:55:42;66278.58;;;14.92;100.00
44675;BME280;30388;52.038;-1.478;2023-05-01T11:58:09;66124.00;;;13.68;100.00
44675;BME280;30388;52.038;-1.478;2023-05-01T12:00:38;66101.72;;;13.62;100.00
44675;BME280;30388;52.038;-1.478;2023-05-01T12:03:07;66311.61;;;15.33;100.00
44675;BME280;30388;52.038;-1.478;2023-05-01T12:05:36;66206.03;;;14.45;100.00
44675;BME280;30388;52.038;-1.478;2023-05-01T12:08:08;66140.49;;;13.89;100.00
44675;BME280;30388;52.038;-1.478;2023-05-01T12:10:38;66163.32;;;13.69;100.00
44675;BME280;30388;52.038;-1.478;2023-05-01T12:13:07;66164.16;;;13.70;100.00
44675;BME280;30388;52.038;-1.478;2023-05-01T12:15:37;66193.24;;;14.29;100.00
44675;BME280;30388;52.038;-1.478;2023-05-01T12:18:05;66407.18;;;16.05;100.00
44675;BME280;30388;52.038;-1.478;2023-05-01T12:20:35;66445.84;;;16.53;100.00
44675;BME280;30388;52.038;-1.478;2023-05-01T12:23:04;66360.30;;;15.47;100.00
44675;BME280;30388;52.038;-1.478;2023-05-01T12:25:31;66370.61;;;15.59;100.00
44675;BME280;30388;52.038;-1.478;2023-05-01T12:28:00;66430.78;;;16.08;100.00
44675;BME280;30388;52.038;-1.478;2023-05-01T12:30:28;66539.89;;;17.01;100.00
44675;BME280;30388;52.038;-1.478;2023-05-01T12:32:56;66425.42;;;16.28;100.00
44675;BME280;30388;52.038;-1.478;2023-05-01T12:35:28;66470.40;;;16.57;100.00
44675;BME280;30388;52.038;-1.478;2023-05-01T12:37:56;66537.46;;;17.20;100.00
44675;BME280;30388;52.038;-1.478;2023-05-01T12:40:26;66596.45;;;17.45;100.00
44675;BME280;30388;52.038;-1.478;2023-05-01T12:42:54;66457.24;;;16.41;100.00
44675;BME280;30388;52.038;-1.478;2023-05-01T12:45:22;66572.94;;;17.14;100.00
44675;BME280;30388;52.038;-1.478;2023-05-01T12:47:49;66315.84;;;15.39;100.00
44675;BME280;30388;52.038;-1.478;2023-05-01T12:50:18;66118.02;;;13.61;100.00